Time;durP1;ratioP1;P1;durP2;ratioP2;P2;SDS_P1;SDS_P2;PMS_P1;PMS_P2;Temp;Humidity;BMP_temperature;BMP_pressure;BME280_temperature;BME280_humidity;BME280_pressure;Samples;Min_cycle;Max_cycle;Signal;HPM_P1;HPM_P2
2023/08/07 00:01:11;;;;;;;8.93;2.53;;;14.30;99.90;;;;;;5012875;28;20105;-80
2023/08/07 00:03:37;;;;;;;13.20;3.63;;;14.30;99.90;;;;;;5012421;28;20378;-80
2023/08/07 00:06:03;;;;;;;5.65;2.25;;;14.30;99.90;;;;;;5012237;28;20108;-81
2023/08/07 00:08:28;;;;;;;10.40;3.22;;;14.30;99.90;;;;;;5012577;28;20022;-80
2023/08/07 00:11:09;;;;;;;10.23;2.55;;;14.30;99.90;;;;;;5012223;28;20029;-80
2023/08/07 00:13:35;;;;;;;15.15;2.47;;;14.40;99.90;;;;;;5012051;28;20091;-80
2023/08/07 00:16:01;;;;;;;11.77;2.58;;;14.40;99.90;;;;;;5012212;28;20101;-80
2023/08/07 00:18:28;;;;;;;11.15;3.38;;;14.40;99.90;;;;;;5012453;28;20416;-80
2023/08/07 00:20:54;;;;;;;11.73;2.95;;;14.40;99.90;;;;;;5012006;28;20062;-80
2023/08/07 00:23:19;;;;;;;11.65;2.65;;;14.50;99.90;;;;;;5012452;28;20061;-80
2023/08/07 00:25:45;;;;;;;12.73;2.90;;;14.50;99.90;;;;;;5011657;28;20061;-80
2023/08/07 00:28:10;;;;;;;10.25;3.08;;;14.50;99.90;;;;;;5011781;28;20057;-80
2023/08/07 00:30:36;;;;;;;9.93;2.25;;;14.60;99.90;;;;;;5011693;28;20033;-80
2023/08/07 00:33:02;;;;;;;19.52;3.47;;;14.70;99.90;;;;;;5011836;28;20396;-80
2023/08/07 00:35:28;;;;;;;11.27;3.17;;;14.60;99.90;;;;;;5025062;28;20050;-80
2023/08/07 00:37:53;;;;;;;20.73;3.53;;;14.60;99.90;;;;;;5031820;28;20112;-79
2023/08/07 00:40:19;;;;;;;14.23;3.30;;;14.60;99.90;;;;;;5031755;28;20369;-79
2023/08/07 00:42:44;;;;;;;13.82;2.78;;;14.60;99.90;;;;;;5031201;28;20025;-80
2023/08/07 00:45:10;;;;;;;11.75;3.67;;;14.60;99.90;;;;;;5031612;28;20040;-79
2023/08/07 00:47:37;;;;;;;13.05;3.50;;;14.70;99.90;;;;;;5031167;28;20036;-80
2023/08/07 00:50:04;;;;;;;11.90;3.20;;;14.70;99.90;;;;;;5032102;28;20029;-79
2023/08/07 00:52:30;;;;;;;21.65;3.00;;;14.70;99.90;;;;;;5031595;28;20022;-80
2023/08/07 00:54:56;;;;;;;7.30;2.58;;;14.70;99.90;;;;;;5031676;28;20021;-81
2023/08/07 00:57:22;;;;;;;20.40;3.95;;;14.70;99.90;;;;;;5032198;28;20040;-80
2023/08/07 00:59:48;;;;;;;10.75;2.78;;;14.60;99.90;;;;;;5031604;28;20083;-80
2023/08/07 01:02:14;;;;;;;13.35;3.35;;;14.70;99.90;;;;;;5031405;28;20021;-79
2023/08/07 01:04:40;;;;;;;10.00;2.17;;;15.30;99.90;;;;;;5031818;28;20101;-79
2023/08/07 01:07:06;;;;;;;11.43;2.83;;;14.50;99.90;;;;;;5031597;28;20441;-79
2023/08/07 01:09:32;;;;;;;8.27;2.88;;;14.40;99.90;;;;;;5030966;28;20041;-79
2023/08/07 01:12:11;;;;;;;10.18;2.95;;;14.30;99.90;;;;;;5031598;28;20040;-79
2023/08/07 01:14:58;;;;;;;8.75;2.20;;;14.30;99.90;;;;;;5031116;28;20473;-79
2023/08/07 01:17:24;;;;;;;8.35;2.35;;;14.30;99.90;;;;;;5031081;28;20477;-79
2023/08/07 01:19:52;;;;;;;15.40;3.08;;;14.20;99.90;;;;;;5030826;28;20092;-79
2023/08/07 01:22:19;;;;;;;7.95;2.65;;;14.20;99.90;;;;;;5031418;28;20026;-79
2023/08/07 01:24:50;;;;;;;9.32;3.13;;;14.20;99.90;;;;;;5031010;28;20025;-79
2023/08/07 01:27:20;;;;;;;;;;;14.20;99.90;;;;;;5031738;28;20083;-79
2023/08/07 01:29:55;;;;;;;11.27;2.75;;;14.20;99.90;;;;;;5030768;28;19905;-80
2023/08/07 01:32:52;;;;;;;12.93;2.80;;;14.20;99.90;;;;;;5031921;28;20033;-80
2023/08/07 01:35:25;;;;;;;17.00;3.70;;;14.10;99.90;;;;;;5010170;28;20041;-79
2023/08/07 01:37:51;;;;;;;10.50;3.58;;;14.20;99.90;;;;;;5030536;28;20033;-79
2023/08/07 01:40:18;;;;;;;15.05;3.83;;;14.10;99.90;;;;;;5031658;28;20041;-81
2023/08/07 01:42:44;;;;;;;16.02;3.00;;;14.10;99.90;;;;;;5031258;28;20029;-80
2023/08/07 01:45:10;;;;;;;16.80;3.70;;;14.10;99.90;;;;;;5031050;28;20037;-81
2023/08/07 01:47:36;;;;;;;15.93;3.72;;;14.10;99.90;;;;;;5030479;28;20385;-80
2023/08/07 01:50:01;;;;;;;10.98;3.17;;;14.10;99.90;;;;;;5030525;28;20033;-80
2023/08/07 01:52:27;;;;;;;13.77;3.63;;;14.20;99.90;;;;;;5030862;28;20025;-80
2023/08/07 01:54:52;;;;;;;15.68;3.10;;;14.20;99.90;;;;;;5033577;28;20116;-80
2023/08/07 01:57:18;;;;;;;12.68;3.40;;;14.20;99.90;;;;;;5034675;28;20029;-81
2023/08/07 01:59:44;;;;;;;11.50;3.70;;;14.40;99.90;;;;;;5034557;28;20116;-80
2023/08/07 02:02:10;;;;;;;15.60;4.53;;;14.30;99.90;;;;;;5034831;28;20029;-80
2023/08/07 02:04:35;;;;;;;10.57;3.08;;;14.90;99.90;;;;;;5034139;28;20413;-80
2023/08/07 02:07:01;;;;;;;14.20;3.60;;;14.20;99.90;;;;;;5034678;28;20033;-80
2023/08/07 02:09:27;;;;;;;14.43;2.88;;;14.20;99.90;;;;;;5034186;28;20021;-80
2023/08/07 02:11:52;;;;;;;12.23;3.22;;;14.30;99.90;;;;;;5033964;28;20530;-79
2023/08/07 02:14:18;;;;;;;20.40;4.07;;;14.30;99.90;;;;;;5034630;28;20504;-80
2023/08/07 02:16:43;;;;;;;13.05;3.25;;;14.60;99.90;;;;;;5034043;28;20375;-80
2023/08/07 02:19:09;;;;;;;12.10;3.03;;;14.30;99.90;;;;;;5033666;28;20044;-80
2023/08/07 02:21:34;;;;;;;10.27;3.20;;;14.30;99.90;;;;;;5033881;28;20354;-80
2023/08/07 02:24:00;;;;;;;10.77;3.40;;;13.90;99.90;;;;;;5034174;28;20124;-80
2023/08/07 02:26:25;;;;;;;16.15;3.53;;;14.30;99.90;;;;;;5033373;28;20017;-80
2023/08/07 02:28:51;;;;;;;14.00;3.05;;;14.30;99.90;;;;;;5032643;28;20109;-79
2023/08/07 02:31:16;;;;;;;11.13;3.95;;;14.40;99.90;;;;;;5033828;28;20029;-79
2023/08/07 02:33:42;;;;;;;15.07;3.50;;;14.30;99.90;;;;;;5033663;28;20020;-79
2023/08/07 02:36:08;;;;;;;10.40;3.78;;;14.40;99.90;;;;;;5034231;28;20103;-79
2023/08/07 02:38:33;;;;;;;16.08;4.00;;;14.40;99.90;;;;;;5033830;28;20120;-79
2023/08/07 02:40:59;;;;;;;12.35;3.53;;;14.40;99.90;;;;;;5033944;28;20022;-79
2023/08/07 02:43:26;;;;;;;21.05;3.20;;;14.40;99.90;;;;;;5034290;28;20156;-80
2023/08/07 02:45:51;;;;;;;16.55;3.63;;;14.40;99.90;;;;;;5033836;28;20060;-80
2023/08/07 02:48:17;;;;;;;9.18;3.42;;;15.30;99.90;;;;;;5033345;28;20492;-80
2023/08/07 02:50:43;;;;;;;14.32;3.35;;;14.50;99.90;;;;;;5033481;28;20026;-79
2023/08/07 02:53:09;;;;;;;10.73;3.35;;;14.50;99.90;;;;;;5033887;28;20492;-79
2023/08/07 02:55:34;;;;;;;18.38;4.65;;;14.50;99.90;;;;;;5033020;28;20021;-80
2023/08/07 02:58:00;;;;;;;13.13;3.20;;;14.50;99.90;;;;;;5033707;28;20044;-79
2023/08/07 03:00:26;;;;;;;17.63;3.15;;;14.60;99.90;;;;;;5033676;28;20022;-79
2023/08/07 03:02:51;;;;;;;12.50;3.00;;;14.60;99.90;;;;;;5032486;28;20040;-79
2023/08/07 03:05:17;;;;;;;12.23;3.15;;;14.60;99.90;;;;;;5032638;28;20394;-80
2023/08/07 03:07:42;;;;;;;11.30;2.65;;;14.60;99.90;;;;;;5033188;28;20087;-80
2023/08/07 03:10:08;;;;;;;12.18;2.88;;;14.60;99.90;;;;;;5033599;28;20480;-79
2023/08/07 03:12:34;;;;;;;13.55;3.45;;;14.50;99.90;;;;;;5033243;28;20022;-80
2023/08/07 03:14:59;;;;;;;9.20;2.13;;;14.40;99.90;;;;;;5032834;28;20463;-79
2023/08/07 03:17:25;;;;;;;9.70;2.58;;;14.50;99.90;;;;;;5033514;28;20536;-80
2023/08/07 03:19:50;;;;;;;10.57;2.67;;;14.40;99.90;;;;;;5032527;28;20048;-80
2023/08/07 03:22:16;;;;;;;10.48;2.38;;;14.30;99.90;;;;;;5033167;28;20021;-80
2023/08/07 03:24:47;;;;;;;13.25;2.92;;;14.30;99.90;;;;;;5033085;28;20025;-79
2023/08/07 03:27:13;;;;;;;8.00;2.60;;;14.30;99.90;;;;;;5033395;28;20477;-79
2023/08/07 03:29:38;;;;;;;8.40;1.83;;;14.30;99.90;;;;;;5032472;28;20067;-80
2023/08/07 03:32:04;;;;;;;8.25;2.40;;;14.30;99.90;;;;;;5033159;28;20109;-79
2023/08/07 03:34:30;;;;;;;4.82;1.73;;;14.40;99.90;;;;;;5032700;28;20069;-79
2023/08/07 03:36:55;;;;;;;9.13;2.58;;;14.30;99.90;;;;;;5032596;28;20380;-79
2023/08/07 03:39:21;;;;;;;7.38;2.45;;;14.30;99.90;;;;;;5033133;28;20030;-79
2023/08/07 03:41:46;;;;;;;10.20;2.75;;;14.30;99.90;;;;;;5032078;28;20029;-79
2023/08/07 03:44:12;;;;;;;5.53;2.20;;;14.30;99.90;;;;;;5032482;28;20030;-82
2023/08/07 03:46:37;;;;;;;8.90;2.90;;;14.20;99.90;;;;;;5032032;28;20112;-80
2023/08/07 03:49:03;;;;;;;11.73;3.45;;;14.20;99.90;;;;;;5033166;28;20060;-82
2023/08/07 03:51:30;;;;;;;13.05;3.40;;;14.20;99.90;;;;;;5032603;28;20017;-81
2023/08/07 03:53:56;;;;;;;11.50;2.85;;;14.20;99.90;;;;;;5032894;28;20034;-81
2023/08/07 03:56:21;;;;;;;11.48;3.55;;;14.10;99.90;;;;;;5033301;28;20033;-80
2023/08/07 03:58:49;;;;;;;10.75;3.08;;;14.20;99.90;;;;;;5032123;28;20123;-79
2023/08/07 04:01:14;;;;;;;10.82;3.20;;;14.90;99.90;;;;;;5032363;28;20025;-80
2023/08/07 04:03:40;;;;;;;9.60;2.72;;;14.10;99.90;;;;;;5032165;28;20491;-80
2023/08/07 04:06:06;;;;;;;15.93;3.53;;;14.10;99.90;;;;;;5032130;28;20029;-80
2023/08/07 04:08:31;;;;;;;10.45;2.60;;;14.20;99.90;;;;;;5031898;28;20025;-80
2023/08/07 04:11:04;;;;;;;9.32;2.78;;;14.20;99.90;;;;;;5016631;28;20037;-80
2023/08/07 04:13:30;;;;;;;8.50;3.33;;;14.10;99.90;;;;;;5012326;28;20022;-79
2023/08/07 04:15:56;;;;;;;13.10;2.85;;;14.10;99.90;;;;;;5012112;28;20037;-80
2023/08/07 04:18:22;;;;;;;12.05;2.75;;;14.10;99.90;;;;;;5011348;28;20034;-80
2023/08/07 04:20:57;;;;;;;11.05;2.60;;;14.10;99.90;;;;;;5012386;28;20082;-80
2023/08/07 04:23:24;;;;;;;20.60;3.45;;;14.10;99.90;;;;;;5012483;28;20561;-80
2023/08/07 04:25:50;;;;;;;10.75;3.13;;;14.10;99.90;;;;;;5011384;28;20166;-80
2023/08/07 04:28:16;;;;;;;15.52;3.80;;;14.10;99.90;;;;;;5012060;28;20037;-79
2023/08/07 04:30:43;;;;;;;14.38;3.08;;;14.10;99.90;;;;;;5006973;28;20026;-80
2023/08/07 04:33:09;;;;;;;13.55;3.22;;;14.10;99.90;;;;;;5004591;28;20018;-80
2023/08/07 04:35:34;;;;;;;20.15;3.60;;;14.10;99.90;;;;;;5013722;28;20053;-82
2023/08/07 04:38:02;;;;;;;13.52;3.30;;;14.20;99.90;;;;;;5031648;28;20045;-80
2023/08/07 04:40:27;;;;;;;13.43;3.92;;;14.20;99.90;;;;;;5031570;28;20116;-78
2023/08/07 04:42:53;;;;;;;11.38;3.35;;;14.20;99.90;;;;;;5032312;28;20109;-81
2023/08/07 04:45:18;;;;;;;13.65;4.35;;;14.30;99.90;;;;;;5031893;28;20036;-80
2023/08/07 04:47:44;;;;;;;15.38;3.67;;;15.00;99.90;;;;;;5031066;28;20086;-81
2023/08/07 04:50:09;;;;;;;16.80;3.85;;;14.30;99.90;;;;;;5030994;28;20029;-81
2023/08/07 04:52:35;;;;;;;14.80;3.47;;;14.30;99.90;;;;;;5031703;28;20048;-81
2023/08/07 04:55:01;;;;;;;15.55;3.15;;;14.30;99.90;;;;;;5021001;28;20383;-80
2023/08/07 04:57:27;;;;;;;13.73;3.05;;;14.40;99.90;;;;;;5011876;28;20055;-80
2023/08/07 04:59:52;;;;;;;12.25;3.08;;;14.40;99.90;;;;;;5011681;28;20366;-80
2023/08/07 05:02:19;;;;;;;11.95;2.50;;;14.40;99.90;;;;;;5011821;28;20084;-80
2023/08/07 05:04:44;;;;;;;13.30;2.75;;;14.40;99.90;;;;;;5011438;28;20486;-80
2023/08/07 05:07:10;;;;;;;14.18;3.03;;;14.50;99.90;;;;;;5011890;28;20112;-80
2023/08/07 05:09:36;;;;;;;10.38;2.92;;;14.40;99.90;;;;;;5011341;28;20062;-80
2023/08/07 05:12:01;;;;;;;10.85;2.88;;;14.50;99.90;;;;;;5011800;28;20076;-80
2023/08/07 05:14:29;;;;;;;14.93;3.47;;;14.50;99.90;;;;;;5011618;28;20034;-80
2023/08/07 05:16:54;;;;;;;14.68;3.20;;;14.50;99.90;;;;;;5027321;28;20074;-80
2023/08/07 05:19:20;;;;;;;13.60;2.75;;;14.50;99.90;;;;;;5031204;28;20037;-80
2023/08/07 05:21:49;;;;;;;12.45;2.38;;;14.60;99.90;;;;;;5030589;28;20388;-81
2023/08/07 05:24:15;;;;;;;7.93;2.67;;;14.50;99.90;;;;;;5016770;28;20030;-80
2023/08/07 05:26:41;;;;;;;8.27;2.90;;;14.50;99.90;;;;;;5011390;28;20033;-80
2023/08/07 05:29:07;;;;;;;8.35;2.80;;;14.50;99.90;;;;;;5019839;28;20373;-79
2023/08/07 05:31:33;;;;;;;13.98;3.80;;;14.50;99.90;;;;;;5035394;28;20135;-79
2023/08/07 05:33:59;;;;;;;11.38;2.88;;;14.50;99.90;;;;;;5035209;28;20057;-79
2023/08/07 05:36:24;;;;;;;7.30;2.88;;;14.40;99.90;;;;;;5035011;28;20081;-79
2023/08/07 05:38:50;;;;;;;8.85;1.92;;;14.30;99.90;;;;;;5035018;28;20045;-78
2023/08/07 05:41:16;;;;;;;7.82;2.05;;;14.30;99.90;;;;;;5034817;28;20424;-79
2023/08/07 05:43:42;;;;;;;7.70;2.70;;;14.20;99.90;;;;;;5022783;28;20064;-79
2023/08/07 05:46:08;;;;;;;5.65;2.30;;;14.20;99.90;;;;;;5021921;28;20048;-79
2023/08/07 05:48:33;;;;;;;9.60;3.25;;;14.20;99.90;;;;;;5033386;28;20018;-78
2023/08/07 05:50:59;;;;;;;11.80;2.58;;;14.20;99.90;;;;;;5033893;28;20112;-78
2023/08/07 05:53:24;;;;;;;8.38;2.90;;;14.20;99.90;;;;;;5034960;28;20029;-78
2023/08/07 05:55:50;;;;;;;11.05;3.15;;;14.20;99.90;;;;;;5034568;28;20026;-79
2023/08/07 05:58:16;;;;;;;13.82;3.13;;;14.20;99.90;;;;;;5034360;28;20121;-78
2023/08/07 06:00:41;;;;;;;16.20;4.82;;;14.20;99.90;;;;;;5034555;28;20017;-78
2023/08/07 06:03:07;;;;;;;13.75;3.42;;;14.20;99.90;;;;;;5026163;28;20448;-82
2023/08/07 06:05:34;;;;;;;11.60;3.10;;;14.20;99.90;;;;;;5024056;28;20032;-79
2023/08/07 06:08:00;;;;;;;9.48;2.90;;;14.20;99.90;;;;;;5024430;28;20037;-79
2023/08/07 06:10:27;;;;;;;13.48;3.63;;;14.20;99.90;;;;;;5028229;28;20022;-79
2023/08/07 06:12:53;;;;;;;14.32;3.22;;;14.20;99.90;;;;;;5023931;28;20075;-80
2023/08/07 06:15:19;;;;;;;15.80;3.28;;;14.30;99.90;;;;;;5024314;28;20021;-80
2023/08/07 06:17:44;;;;;;;18.42;3.40;;;14.70;99.90;;;;;;5022292;28;20033;-79
2023/08/07 06:20:11;;;;;;;8.45;2.63;;;14.30;99.90;;;;;;5024818;28;20052;-81
2023/08/07 06:22:37;;;;;;;5.80;2.20;;;14.20;99.90;;;;;;5023705;28;20030;-80
2023/08/07 06:25:05;;;;;;;11.25;3.33;;;15.10;99.90;;;;;;5022626;28;20037;-82
2023/08/07 06:27:31;;;;;;;10.23;2.67;;;14.20;99.90;;;;;;5023319;28;20025;-80
2023/08/07 06:29:57;;;;;;;10.70;2.80;;;14.20;99.90;;;;;;5023883;28;20021;-84
2023/08/07 06:32:24;;;;;;;11.85;2.70;;;14.20;99.90;;;;;;5025008;28;20053;-82
2023/08/07 06:34:50;;;;;;;7.38;3.10;;;14.10;99.90;;;;;;5022595;28;20506;-82
2023/08/07 06:37:15;;;;;;;11.93;3.22;;;14.10;99.90;;;;;;5023718;28;20025;-82
2023/08/07 06:39:41;;;;;;;16.92;3.03;;;14.10;99.90;;;;;;5023379;28;20022;-80
2023/08/07 06:42:07;;;;;;;8.43;2.55;;;14.10;99.90;;;;;;5021786;28;20080;-80
2023/08/07 06:44:32;;;;;;;10.95;3.15;;;14.10;99.90;;;;;;5023985;28;20033;-80
2023/08/07 06:46:58;;;;;;;10.80;3.10;;;14.10;99.90;;;;;;5023599;28;20053;-80
2023/08/07 06:49:23;;;;;;;15.32;3.42;;;14.00;99.90;;;;;;5021371;28;20030;-80
2023/08/07 06:51:49;;;;;;;12.75;3.22;;;14.10;99.90;;;;;;5013835;28;20073;-81
2023/08/07 06:54:15;;;;;;;9.65;3.55;;;14.10;99.90;;;;;;5023037;28;20033;-80
2023/08/07 06:56:42;;;;;;;10.68;3.47;;;14.10;99.90;;;;;;5033312;28;20048;-79
2023/08/07 06:59:07;;;;;;;13.93;3.63;;;14.10;99.90;;;;;;5033494;28;20029;-80
2023/08/07 07:01:33;;;;;;;9.02;3.47;;;14.10;99.90;;;;;;5032315;28;20090;-79
2023/08/07 07:03:58;;;;;;;7.45;2.95;;;14.20;99.90;;;;;;5032776;28;20042;-79
2023/08/07 07:06:25;;;;;;;14.70;3.67;;;14.20;99.90;;;;;;5033822;28;20362;-80
2023/08/07 07:08:54;;;;;;;14.63;3.50;;;14.30;99.90;;;;;;5032678;28;20103;-79
2023/08/07 07:11:20;;;;;;;13.23;3.63;;;14.30;99.90;;;;;;5033433;28;20086;-80
2023/08/07 07:13:46;;;;;;;12.25;3.35;;;14.30;99.90;;;;;;5032893;28;20036;-80
2023/08/07 07:16:13;;;;;;;13.32;3.38;;;14.30;99.90;;;;;;5032073;28;20053;-80
2023/08/07 07:18:39;;;;;;;13.85;4.25;;;14.40;99.90;;;;;;5032481;28;20059;-80
2023/08/07 07:21:04;;;;;;;9.48;2.53;;;14.90;99.90;;;;;;5032462;28;20025;-80
2023/08/07 07:23:30;;;;;;;8.07;2.88;;;14.50;99.90;;;;;;5032874;28;20083;-83
2023/08/07 07:25:57;;;;;;;11.07;3.08;;;14.60;99.90;;;;;;5032924;28;20029;-83
2023/08/07 07:28:23;;;;;;;11.02;3.42;;;14.80;99.90;;;;;;5032804;28;20388;-83
2023/08/07 07:30:50;;;;;;;16.52;3.08;;;14.80;99.90;;;;;;5032784;28;20022;-82
2023/08/07 07:33:16;;;;;;;9.88;2.33;;;14.90;99.90;;;;;;5014562;28;20037;-81
2023/08/07 07:35:43;;;;;;;14.98;3.28;;;15.00;99.90;;;;;;5021581;28;20095;-81
2023/08/07 07:38:10;;;;;;;22.77;3.17;;;15.00;99.90;;;;;;5032417;28;20124;-81
2023/08/07 07:40:35;;;;;;;6.22;2.30;;;15.10;99.90;;;;;;5032313;28;20022;-81
2023/08/07 07:43:01;;;;;;;11.35;2.75;;;15.20;99.90;;;;;;5032205;28;20032;-81
2023/08/07 07:45:27;;;;;;;14.50;2.55;;;15.30;99.90;;;;;;5027181;28;20029;-81
2023/08/07 07:47:52;;;;;;;17.33;2.58;;;15.10;99.90;;;;;;5030457;28;20064;-80
2023/08/07 07:50:18;;;;;;;9.75;2.58;;;15.10;99.90;;;;;;5029803;28;20018;-80
2023/08/07 07:52:43;;;;;;;10.20;2.72;;;15.10;99.90;;;;;;5030100;28;20022;-80
2023/08/07 07:55:10;;;;;;;9.75;2.80;;;15.20;99.90;;;;;;5029925;28;20044;-80
2023/08/07 07:57:35;;;;;;;8.88;2.92;;;15.20;99.90;;;;;;5029980;28;20052;-81
2023/08/07 08:00:02;;;;;;;12.13;2.55;;;15.20;99.90;;;;;;5026185;28;20548;-80
2023/08/07 08:02:28;;;;;;;19.30;3.83;;;15.20;99.90;;;;;;5030960;28;20131;-80
2023/08/07 08:04:53;;;;;;;13.07;3.38;;;15.30;99.90;;;;;;5028931;28;20057;-80
2023/08/07 08:07:19;;;;;;;9.68;2.67;;;15.30;99.90;;;;;;5030294;28;20021;-80
2023/08/07 08:09:45;;;;;;;9.40;2.08;;;15.30;99.90;;;;;;5030191;28;20536;-80
2023/08/07 08:12:11;;;;;;;6.07;1.80;;;15.40;99.90;;;;;;5030223;28;20033;-80
2023/08/07 08:14:36;;;;;;;12.32;2.53;;;15.40;99.90;;;;;;5030042;28;20072;-80
2023/08/07 08:17:02;;;;;;;8.93;2.53;;;16.20;99.90;;;;;;5030407;28;20053;-80
2023/08/07 08:19:28;;;;;;;11.55;3.25;;;15.50;99.90;;;;;;5029533;28;20524;-80
2023/08/07 08:21:53;;;;;;;9.38;2.30;;;15.50;99.90;;;;;;5029794;28;20022;-79
2023/08/07 08:24:19;;;;;;;11.85;2.60;;;15.50;99.90;;;;;;5030013;28;20033;-78
2023/08/07 08:26:45;;;;;;;10.70;2.58;;;16.50;99.90;;;;;;5030225;28;20021;-79
2023/08/07 08:29:14;;;;;;;8.68;2.38;;;15.60;99.90;;;;;;5028438;28;20195;-79
2023/08/07 08:31:40;;;;;;;7.20;2.10;;;15.70;99.90;;;;;;5027828;28;20149;-79
2023/08/07 08:34:05;;;;;;;9.02;2.13;;;15.70;99.90;;;;;;5027867;28;20167;-79
2023/08/07 08:36:31;;;;;;;10.25;2.22;;;16.10;99.90;;;;;;5028148;28;20041;-79
2023/08/07 08:38:56;;;;;;;16.75;2.50;;;15.80;99.90;;;;;;5024018;28;20045;-80
2023/08/07 08:41:23;;;;;;;12.20;2.53;;;15.90;99.90;;;;;;5015235;28;20026;-78
2023/08/07 08:43:51;;;;;;;12.23;2.58;;;16.30;99.90;;;;;;5018102;28;20039;-79
2023/08/07 08:46:19;;;;;;;11.20;1.83;;;15.90;99.90;;;;;;5012250;28;20030;-79
2023/08/07 08:48:51;;;;;;;9.55;2.53;;;16.00;99.90;;;;;;5017802;28;20083;-80
2023/08/07 08:51:18;;;;;;;9.15;2.22;;;15.90;99.90;;;;;;5017772;28;20104;-80
2023/08/07 08:53:46;;;;;;;9.80;2.80;;;16.00;99.90;;;;;;5011549;28;20030;-79
2023/08/07 08:56:11;;;;;;;13.07;3.30;;;16.00;99.90;;;;;;5011453;28;20021;-79
2023/08/07 08:58:38;;;;;;;4.47;1.85;;;15.90;99.90;;;;;;5017967;28;20500;-79
2023/08/07 09:01:05;;;;;;;6.07;1.88;;;16.00;99.90;;;;;;5008923;28;20025;-79
2023/08/07 09:03:30;;;;;;;8.93;1.77;;;16.00;99.90;;;;;;5013942;28;20029;-79
2023/08/07 09:05:58;;;;;;;11.60;2.15;;;16.10;99.90;;;;;;5010907;28;20470;-79
2023/08/07 09:08:26;;;;;;;9.23;2.22;;;16.10;99.90;;;;;;5019130;28;20049;-79
2023/08/07 09:10:52;;;;;;;7.35;2.28;;;16.20;99.90;;;;;;5011224;28;20026;-79
2023/08/07 09:13:22;;;;;;;5.75;2.17;;;16.20;99.90;;;;;;5020986;28;20079;-79
2023/08/07 09:15:50;;;;;;;5.17;1.70;;;16.30;99.90;;;;;;5019011;28;20362;-79
2023/08/07 09:18:17;;;;;;;11.27;1.88;;;16.20;99.90;;;;;;5010390;28;20088;-78
2023/08/07 09:20:43;;;;;;;6.45;2.40;;;16.40;99.90;;;;;;5010396;28;20141;-79
2023/08/07 09:23:09;;;;;;;6.60;2.22;;;16.40;99.90;;;;;;5017189;28;20108;-79
2023/08/07 09:25:35;;;;;;;9.40;2.75;;;16.40;99.90;;;;;;5020228;28;20030;-79
2023/08/07 09:28:05;;;;;;;11.70;2.47;;;16.40;99.90;;;;;;5019869;28;20036;-79
2023/08/07 09:30:32;;;;;;;6.32;1.85;;;16.40;99.90;;;;;;5014243;28;20025;-79
2023/08/07 09:32:59;;;;;;;6.95;2.10;;;16.40;99.90;;;;;;5015823;28;20026;-79
2023/08/07 09:35:25;;;;;;;11.32;2.80;;;16.40;99.90;;;;;;5019531;28;20049;-80
2023/08/07 09:37:51;;;;;;;11.63;2.38;;;16.50;99.90;;;;;;5016204;28;20040;-81
2023/08/07 09:40:18;;;;;;;7.47;1.95;;;16.40;99.90;;;;;;5016809;28;20053;-82
2023/08/07 09:42:43;;;;;;;10.23;2.30;;;16.40;99.90;;;;;;4995549;28;20104;-79
2023/08/07 09:45:22;;;;;;;6.95;2.70;;;16.40;99.90;;;;;;5010591;28;20109;-81
2023/08/07 09:48:02;;;;;;;10.13;2.65;;;16.50;99.90;;;;;;5010377;28;20322;-80
2023/08/07 09:50:28;;;;;;;7.15;1.70;;;16.50;99.90;;;;;;5010410;28;20048;-80
2023/08/07 09:52:55;;;;;;;11.35;2.45;;;16.50;99.90;;;;;;5010624;28;20485;-80
2023/08/07 09:55:21;;;;;;;9.00;2.03;;;16.50;99.90;;;;;;5014804;28;20036;-80
2023/08/07 09:57:48;;;;;;;5.80;2.05;;;16.50;99.90;;;;;;5009746;28;20117;-79
2023/08/07 10:00:15;;;;;;;9.93;2.22;;;16.50;99.90;;;;;;5019504;28;20057;-81
2023/08/07 10:02:44;;;;;;;7.32;1.73;;;16.50;99.90;;;;;;5014022;28;20072;-81
2023/08/07 10:05:11;;;;;;;7.47;1.75;;;16.50;99.90;;;;;;5020695;28;20018;-81
2023/08/07 10:07:40;;;;;;;8.52;1.75;;;16.60;99.90;;;;;;5014552;28;20030;-80
2023/08/07 10:10:07;;;;;;;4.35;2.10;;;16.60;99.90;;;;;;5018597;28;20025;-80
2023/08/07 10:12:33;;;;;;;9.60;1.73;;;16.60;99.90;;;;;;5008493;28;20022;-80
2023/08/07 10:15:01;;;;;;;9.25;2.00;;;16.60;99.90;;;;;;5019612;28;20036;-81
2023/08/07 10:17:27;;;;;;;4.57;2.25;;;16.70;99.90;;;;;;5012688;28;20469;-80
2023/08/07 10:19:53;;;;;;;11.88;2.92;;;16.80;99.90;;;;;;5025678;28;20037;-79
2023/08/07 10:22:19;;;;;;;7.45;1.85;;;16.80;99.90;;;;;;5018062;28;20029;-79
2023/08/07 10:24:48;;;;;;;10.80;1.98;;;16.80;99.90;;;;;;5019483;28;20041;-79
2023/08/07 10:27:19;;;;;;;5.40;1.85;;;16.80;99.90;;;;;;5013759;28;20022;-79
2023/08/07 10:29:47;;;;;;;7.88;1.80;;;16.80;99.90;;;;;;5013384;28;20037;-79
2023/08/07 10:32:14;;;;;;;4.68;1.77;;;16.80;99.90;;;;;;5017739;28;20030;-79
2023/08/07 10:34:40;;;;;;;3.97;1.27;;;16.80;99.90;;;;;;5024711;28;20056;-78
2023/08/07 10:37:28;;;;;;;10.65;1.90;;;16.80;99.90;;;;;;5026496;28;20017;-79
2023/08/07 10:40:05;;;;;;;7.72;1.92;;;16.90;99.90;;;;;;5016762;28;20034;-79
2023/08/07 10:43:12;;;;;;;11.30;2.58;;;16.90;99.90;;;;;;5013651;28;20144;-79
2023/08/07 10:45:38;;;;;;;5.78;1.65;;;17.00;99.90;;;;;;5016374;28;20030;-79
2023/08/07 10:48:18;;;;;;;4.97;2.25;;;16.90;99.90;;;;;;5012825;28;20045;-78
2023/08/07 10:50:56;;;;;;;7.30;1.80;;;17.00;99.90;;;;;;5013291;28;20022;-79
2023/08/07 10:53:51;;;;;;;7.03;1.85;;;17.00;99.90;;;;;;5027025;28;20466;-79
2023/08/07 10:56:31;;;;;;;11.75;2.25;;;17.00;99.90;;;;;;5012270;28;20230;-79
2023/08/07 10:58:56;;;;;;;4.28;1.58;;;17.10;99.90;;;;;;5024511;28;20069;-80
2023/08/07 11:01:34;;;;;;;4.32;1.80;;;17.20;99.90;;;;;;5021434;28;20095;-79
2023/08/07 11:04:04;;;;;;;4.50;1.70;;;17.10;99.90;;;;;;5001674;28;20381;-80
2023/08/07 11:06:32;;;;;;;3.17;1.58;;;17.10;99.90;;;;;;5012796;28;20029;-79
2023/08/07 11:09:03;;;;;;;14.70;1.80;;;17.10;99.90;;;;;;5012886;28;20026;-79
2023/08/07 11:11:49;;;;;;;5.50;2.60;;;17.20;99.90;;;;;;5013379;28;20033;-79
2023/08/07 11:14:19;;;;;;;12.10;2.67;;;17.10;99.90;;;;;;5000948;28;20125;-79
2023/08/07 11:16:46;;;;;;;7.60;2.17;;;17.10;99.90;;;;;;5012651;28;20029;-79
2023/08/07 11:19:14;;;;;;;7.47;2.33;;;17.10;99.90;;;;;;5013557;28;20057;-79
2023/08/07 11:21:42;;;;;;;8.40;2.00;;;17.10;99.90;;;;;;5012522;28;20025;-79
2023/08/07 11:24:08;;;;;;;6.65;2.08;;;17.10;99.90;;;;;;5013240;28;20040;-79
2023/08/07 11:26:34;;;;;;;8.23;1.63;;;17.20;99.90;;;;;;5009622;28;20017;-79
2023/08/07 11:28:59;;;;;;;3.40;1.48;;;17.20;99.90;;;;;;5002350;28;20100;-80
2023/08/07 11:31:25;;;;;;;4.90;2.00;;;17.20;99.90;;;;;;5012322;28;20049;-80
2023/08/07 11:33:52;;;;;;;3.72;1.70;;;17.20;99.90;;;;;;5012667;28;20557;-79
2023/08/07 11:36:17;;;;;;;5.40;1.88;;;17.20;99.90;;;;;;5031368;28;20050;-81
2023/08/07 11:38:44;;;;;;;6.78;1.80;;;17.20;99.90;;;;;;5031863;28;20048;-80
2023/08/07 11:41:12;;;;;;;5.05;1.48;;;17.20;99.90;;;;;;5031172;28;20053;-80
2023/08/07 11:43:38;;;;;;;6.63;1.40;;;17.20;99.90;;;;;;5030353;28;20117;-80
2023/08/07 11:46:06;;;;;;;6.38;1.92;;;17.20;99.90;;;;;;5030921;28;20013;-79
2023/08/07 11:48:34;;;;;;;4.53;1.67;;;17.10;99.90;;;;;;5030259;28;20377;-80
2023/08/07 11:51:00;;;;;;;8.00;1.80;;;17.20;99.90;;;;;;5030163;28;20100;-80
2023/08/07 11:53:34;;;;;;;4.55;1.77;;;17.10;99.90;;;;;;5030634;28;20113;-79
2023/08/07 11:56:14;;;;;;;4.32;1.85;;;17.20;99.90;;;;;;5030678;28;20018;-79
2023/08/07 11:58:41;;;;;;;8.17;1.47;;;17.30;99.90;;;;;;5032287;28;20033;-79
2023/08/07 12:01:10;;;;;;;3.15;1.20;;;17.30;99.90;;;;;;5032115;28;20620;-79
2023/08/07 12:03:41;;;;;;;4.18;1.35;;;17.40;99.90;;;;;;5031488;28;20048;-80
2023/08/07 12:06:07;;;;;;;4.00;1.30;;;17.40;99.90;;;;;;5032377;28;20060;-79
2023/08/07 12:08:41;;;;;;;4.78;1.40;;;17.40;99.90;;;;;;5031928;28;20056;-80
2023/08/07 12:11:09;;;;;;;2.35;1.50;;;17.40;99.90;;;;;;5032068;28;20032;-80
2023/08/07 12:13:41;;;;;;;3.53;1.65;;;18.20;99.90;;;;;;5031558;28;20025;-80
2023/08/07 12:16:08;;;;;;;4.82;2.55;;;17.40;99.90;;;;;;5032302;28;20030;-78
2023/08/07 12:18:35;;;;;;;6.68;1.48;;;17.40;99.90;;;;;;5031416;28;20045;-78
2023/08/07 12:21:04;;;;;;;3.95;1.88;;;17.50;99.90;;;;;;5032328;28;20101;-80
2023/08/07 12:23:32;;;;;;;7.00;1.70;;;17.50;99.90;;;;;;5031227;28;20032;-81
2023/08/07 12:25:58;;;;;;;4.90;1.60;;;17.50;99.90;;;;;;5031856;28;20026;-80
2023/08/07 12:28:24;;;;;;;4.35;2.03;;;17.50;99.90;;;;;;5032351;28;20025;-80
2023/08/07 12:30:50;;;;;;;6.28;2.15;;;17.60;99.90;;;;;;5031028;28;20048;-81
2023/08/07 12:33:16;;;;;;;5.70;1.77;;;17.60;99.90;;;;;;5031701;28;20045;-80
2023/08/07 12:35:42;;;;;;;7.05;1.65;;;17.70;99.90;;;;;;5031425;28;20092;-81
2023/08/07 12:38:09;;;;;;;4.68;2.00;;;17.60;99.90;;;;;;5030342;28;20037;-80
2023/08/07 12:40:38;;;;;;;5.15;1.67;;;17.60;99.90;;;;;;5031694;28;20013;-81